createdAt,value
2022-09-22T00:00:59.833Z,4.30
2022-09-22T00:04:48.095Z,4.00
2022-09-22T00:08:35.796Z,3.90
2022-09-22T00:12:23.923Z,4.30
2022-09-22T00:16:11.713Z,4.70
2022-09-22T00:20:05.305Z,4.70
2022-09-22T00:23:52.790Z,3.90
2022-09-22T00:27:40.408Z,4.50
2022-09-22T00:31:28.632Z,5.10
2022-09-22T00:35:16.214Z,4.60
2022-09-22T00:39:04.042Z,4.60
2022-09-22T00:42:51.541Z,4.30
2022-09-22T00:46:43.237Z,4.30
2022-09-22T00:50:36.325Z,4.10
2022-09-22T00:54:23.930Z,4.70
2022-09-22T00:58:11.996Z,4.00
2022-09-22T01:01:59.309Z,4.60
2022-09-22T01:05:46.917Z,4.60
2022-09-22T01:09:34.553Z,4.30
2022-09-22T01:13:22.272Z,4.40
2022-09-22T01:17:17.191Z,4.40
2022-09-22T01:21:01.626Z,5.00
2022-09-22T01:25:02.718Z,5.20
2022-09-22T01:28:54.505Z,3.70
2022-09-22T01:32:51.047Z,4.70
2022-09-22T01:36:44.428Z,4.40
2022-09-22T01:40:31.755Z,4.50
2022-09-22T01:44:31.460Z,4.90
2022-09-22T01:48:24.969Z,4.90
2022-09-22T01:52:15.249Z,5.40
2022-09-22T01:56:05.785Z,5.20
2022-09-22T01:59:53.795Z,5.70
2022-09-22T02:03:44.664Z,5.30
2022-09-22T02:07:32.691Z,4.60
2022-09-22T02:11:20.716Z,4.60
2022-09-22T02:15:08.676Z,4.40
2022-09-22T02:19:10.357Z,4.70
2022-09-22T02:22:59.672Z,4.20
2022-09-22T02:26:46.915Z,4.40
2022-09-22T02:30:50.610Z,3.90
2022-09-22T02:34:50.993Z,4.90
2022-09-22T02:38:50.494Z,3.60
2022-09-22T02:42:38.365Z,3.70
2022-09-22T02:46:35.371Z,3.70
2022-09-22T02:50:23.240Z,4.80
2022-09-22T02:54:13.708Z,5.10
2022-09-22T02:58:01.406Z,4.30
2022-09-22T03:01:50.201Z,4.90
2022-09-22T03:05:37.660Z,5.00
2022-09-22T03:09:25.689Z,5.00
2022-09-22T03:13:17.558Z,4.80
2022-09-22T03:17:05.387Z,5.20
2022-09-22T03:20:52.759Z,5.00
2022-09-22T03:24:41.365Z,4.60
2022-09-22T03:28:29.015Z,4.50
2022-09-22T03:32:16.652Z,4.90
2022-09-22T03:36:04.513Z,6.00
2022-09-22T03:39:52.318Z,6.10
2022-09-22T03:43:40.277Z,4.80
2022-09-22T03:47:20.298Z,5.80
2022-09-22T03:51:07.477Z,4.80
2022-09-22T03:54:47.665Z,4.30
2022-09-22T03:58:35.215Z,4.70
2022-09-22T04:02:21.547Z,4.40
2022-09-22T04:05:34.537Z,5.70
2022-09-22T04:09:14.310Z,5.30
2022-09-22T04:12:32.044Z,5.60
2022-09-22T04:15:43.553Z,5.10
2022-09-22T04:19:31.097Z,5.40
2022-09-22T04:23:14.784Z,5.60
2022-09-22T04:30:50.647Z,5.90
2022-09-22T04:34:18.998Z,6.70
2022-09-22T04:37:57.123Z,6.20
2022-09-22T04:41:35.834Z,5.80
2022-09-22T04:45:03.371Z,6.40
2022-09-22T04:48:23.305Z,7.00
2022-09-22T04:51:40.936Z,6.30
2022-09-22T04:55:00.349Z,6.20
2022-09-22T04:58:43.396Z,7.70
2022-09-22T05:02:31.641Z,6.80
2022-09-22T05:05:42.127Z,7.30
2022-09-22T05:09:09.725Z,7.70
2022-09-22T05:12:57.155Z,6.30
2022-09-22T05:16:32.165Z,6.50
2022-09-22T05:20:19.721Z,5.80
2022-09-22T05:24:07.232Z,6.10
2022-09-22T05:27:52.103Z,6.90
2022-09-22T05:31:39.565Z,6.20
2022-09-22T05:35:06.795Z,4.20
2022-09-22T05:38:46.568Z,5.10
2022-09-22T05:42:34.084Z,4.00
2022-09-22T05:45:57.808Z,5.90
2022-09-22T05:49:45.415Z,6.20
2022-09-22T05:53:24.007Z,4.20
2022-09-22T05:57:11.434Z,6.70
2022-09-22T06:00:23.873Z,5.50
2022-09-22T06:04:11.357Z,7.70
2022-09-22T06:07:50.001Z,7.50
2022-09-22T06:11:11.091Z,7.50
2022-09-22T06:14:58.547Z,5.10
2022-09-22T06:18:33.096Z,5.70
2022-09-22T06:22:03.616Z,3.90
2022-09-22T06:25:51.418Z,5.70
2022-09-22T06:29:39.199Z,6.30
2022-09-22T06:33:17.777Z,4.30
2022-09-22T06:36:47.850Z,4.40
2022-09-22T06:40:34.679Z,2.70
2022-09-22T06:44:15.754Z,4.70
2022-09-22T06:48:07.528Z,5.60
2022-09-22T06:51:37.865Z,5.30
2022-09-22T06:55:25.455Z,4.90
2022-09-22T06:59:10.215Z,4.80
2022-09-22T07:02:50.511Z,3.80
2022-09-22T07:06:37.888Z,4.80
2022-09-22T07:10:17.159Z,3.40
2022-09-22T07:14:05.116Z,3.20
2022-09-22T07:17:46.380Z,2.20
2022-09-22T07:21:34.295Z,2.80
2022-09-22T07:25:21.796Z,3.20
2022-09-22T07:29:09.647Z,3.00
2022-09-22T07:32:57.872Z,3.60
2022-09-22T07:36:53.517Z,2.10
2022-09-22T07:40:41.335Z,2.50
2022-09-22T07:44:27.676Z,2.20
2022-09-22T07:48:13.888Z,2.40
2022-09-22T07:52:01.852Z,1.70
2022-09-22T07:55:49.719Z,2.50
2022-09-22T07:59:29.469Z,1.90
2022-09-22T08:02:57.664Z,2.10
2022-09-22T08:06:38.459Z,1.60
2022-09-22T08:10:26.166Z,1.70
2022-09-22T08:14:13.615Z,1.80
2022-09-22T08:18:01.150Z,1.40
2022-09-22T08:21:47.684Z,1.70
2022-09-22T08:25:19.129Z,2.00
2022-09-22T08:28:49.892Z,2.10
2022-09-22T08:32:28.132Z,1.40
2022-09-22T08:36:16.264Z,1.80
2022-09-22T08:40:04.657Z,1.50
2022-09-22T08:43:45.564Z,1.40
2022-09-22T08:47:34.191Z,1.10
2022-09-22T08:51:26.630Z,1.40
2022-09-22T08:55:05.801Z,1.70
2022-09-22T08:59:11.582Z,1.50
2022-09-22T09:03:00.961Z,1.00
2022-09-22T09:07:00.901Z,1.40
2022-09-22T09:10:51.518Z,1.70
2022-09-22T09:14:54.229Z,1.00
2022-09-22T09:18:42.824Z,1.20
2022-09-22T09:22:31.664Z,0.80
2022-09-22T09:26:21.179Z,1.20
2022-09-22T09:29:59.838Z,0.90
2022-09-22T09:33:56.571Z,1.20
2022-09-22T09:37:46.933Z,0.90
2022-09-22T09:41:24.795Z,0.90
2022-09-22T09:45:15.645Z,0.90
2022-09-22T09:49:11.904Z,1.10
2022-09-22T09:52:52.281Z,0.90
2022-09-22T09:56:23.237Z,0.30
2022-09-22T10:00:09.132Z,1.10
2022-09-22T10:04:09.346Z,1.50
2022-09-22T10:07:48.690Z,0.50
2022-09-22T10:11:37.153Z,1.50
2022-09-22T10:15:18.298Z,1.50
2022-09-22T10:19:24.725Z,0.90
2022-09-22T10:23:21.730Z,0.80
2022-09-22T10:27:05.284Z,1.00
2022-09-22T10:31:08.172Z,0.70
2022-09-22T10:35:05.040Z,0.90
2022-09-22T10:38:53.310Z,1.10
2022-09-22T10:42:43.867Z,0.70
2022-09-22T10:46:48.654Z,0.70
2022-09-22T10:50:37.736Z,0.40
2022-09-22T10:54:55.564Z,0.50
2022-09-22T10:59:07.632Z,0.70
2022-09-22T11:03:19.743Z,0.90
2022-09-22T11:07:11.714Z,0.80
2022-09-22T11:11:10.134Z,0.70
2022-09-22T11:15:02.568Z,0.40
2022-09-22T11:18:47.330Z,1.10
2022-09-22T11:22:42.792Z,0.50
2022-09-22T11:26:28.846Z,0.40
2022-09-22T11:30:34.776Z,0.60
2022-09-22T11:34:19.410Z,0.40
2022-09-22T11:38:08.657Z,0.70
2022-09-22T11:42:02.145Z,0.80
2022-09-22T11:45:57.327Z,0.40
2022-09-22T11:49:51.160Z,0.30
2022-09-22T11:53:53.426Z,0.40
2022-09-22T11:57:42.752Z,2.60
2022-09-22T12:01:29.054Z,2.60
2022-09-22T12:05:20.691Z,1.00
2022-09-22T12:08:57.116Z,0.50
2022-09-22T12:12:48.182Z,0.50
2022-09-22T12:16:49.715Z,0.70
2022-09-22T12:20:40.964Z,0.60
2022-09-22T12:24:33.155Z,0.60
2022-09-22T12:28:25.387Z,0.40
2022-09-22T12:32:08.553Z,0.40
2022-09-22T12:35:58.610Z,1.00
2022-09-22T12:39:55.596Z,0.50
2022-09-22T12:43:43.637Z,0.30
2022-09-22T12:47:33.762Z,0.40
2022-09-22T12:51:10.669Z,0.30
2022-09-22T12:55:03.329Z,0.80
2022-09-22T12:58:52.599Z,0.90
2022-09-22T13:02:51.300Z,0.60
2022-09-22T13:06:23.474Z,0.40
2022-09-22T13:10:11.323Z,0.70
2022-09-22T13:14:02.524Z,1.00
2022-09-22T13:17:49.071Z,0.40
2022-09-22T13:21:31.250Z,0.40
2022-09-22T13:25:19.805Z,0.50
2022-09-22T13:29:05.451Z,0.30
2022-09-22T13:32:58.013Z,0.60
2022-09-22T13:36:44.054Z,0.50
2022-09-22T13:40:31.342Z,0.50
2022-09-22T13:44:31.795Z,0.50
2022-09-22T13:48:19.209Z,0.70
2022-09-22T13:52:08.328Z,0.60
2022-09-22T13:56:01.778Z,0.40
2022-09-22T13:59:54.877Z,0.20
2022-09-22T14:03:45.741Z,0.30
2022-09-22T14:07:38.359Z,0.50
2022-09-22T14:11:29.292Z,0.40
2022-09-22T14:15:22.947Z,0.40
2022-09-22T14:19:16.980Z,0.40
2022-09-22T14:23:05.045Z,0.50
2022-09-22T14:27:03.021Z,0.30
2022-09-22T14:30:55.676Z,0.40
2022-09-22T14:34:43.984Z,0.40
2022-09-22T14:38:32.985Z,0.50
2022-09-22T14:42:30.198Z,1.50
2022-09-22T14:46:17.950Z,0.40
2022-09-22T14:50:13.310Z,0.60
2022-09-22T14:54:04.342Z,0.60
2022-09-22T14:57:52.074Z,0.70
2022-09-22T15:01:38.534Z,0.80
2022-09-22T15:05:29.694Z,0.70
2022-09-22T15:09:19.417Z,0.50
2022-09-22T15:13:11.674Z,0.60
2022-09-22T15:17:11.651Z,1.90
2022-09-22T15:21:00.250Z,1.20
2022-09-22T15:24:48.757Z,1.30
2022-09-22T15:28:36.421Z,2.00
2022-09-22T15:32:24.553Z,1.60
2022-09-22T15:36:13.716Z,1.20
2022-09-22T15:40:09.349Z,1.70
2022-09-22T15:43:57.969Z,1.50
2022-09-22T15:47:46.469Z,1.40
2022-09-22T15:51:34.517Z,0.90
2022-09-22T15:55:22.370Z,1.20
2022-09-22T15:59:16.690Z,1.40
2022-09-22T16:03:05.386Z,4.10
2022-09-22T16:06:53.589Z,4.80
2022-09-22T16:10:42.099Z,2.70
2022-09-22T16:14:30.538Z,2.30
2022-09-22T16:18:18.817Z,1.90
2022-09-22T16:22:09.856Z,1.60
2022-09-22T16:25:58.252Z,2.00
2022-09-22T16:29:46.168Z,2.30
2022-09-22T16:33:35.044Z,8.30
2022-09-22T16:37:24.228Z,9.70
2022-09-22T16:41:12.778Z,11.20
2022-09-22T16:45:02.241Z,7.80
2022-09-22T16:48:50.381Z,7.40
2022-09-22T16:52:39.228Z,5.50
2022-09-22T16:56:27.240Z,16.50
2022-09-22T17:00:15.612Z,9.90
2022-09-22T17:04:04.115Z,4.80
2022-09-22T17:07:51.986Z,3.80
2022-09-22T17:11:39.747Z,4.80
2022-09-22T17:15:27.802Z,5.40
2022-09-22T17:19:15.679Z,5.40
2022-09-22T17:23:03.264Z,6.40
2022-09-22T17:26:51.319Z,7.80
2022-09-22T17:30:39.009Z,7.20
2022-09-22T17:34:27.186Z,5.60
2022-09-22T17:38:16.551Z,16.90
2022-09-22T17:42:10.146Z,7.50
2022-09-22T17:45:58.318Z,10.70
2022-09-22T17:49:44.541Z,12.40
2022-09-22T17:53:32.827Z,31.50
2022-09-22T17:57:21.202Z,15.40
2022-09-22T18:01:09.243Z,10.00
2022-09-22T18:04:57.928Z,8.70
2022-09-22T18:08:47.002Z,9.10
2022-09-22T18:12:35.601Z,9.80
2022-09-22T18:16:26.815Z,10.50
2022-09-22T18:20:15.168Z,9.10
2022-09-22T18:24:05.190Z,10.50
2022-09-22T18:27:54.438Z,13.50
2022-09-22T18:31:42.924Z,16.30
2022-09-22T18:35:31.218Z,18.20
